createdAt,value
2019-04-21T00:01:03.917Z,8.23
2019-04-21T00:03:10.016Z,11.60
2019-04-21T00:05:37.341Z,8.60
2019-04-21T00:07:37.847Z,7.93
2019-04-21T00:09:48.064Z,11.50
2019-04-21T00:11:48.335Z,11.23
2019-04-21T00:13:49.615Z,12.67
2019-04-21T00:15:46.366Z,9.97
2019-04-21T00:17:50.894Z,8.97
2019-04-21T00:20:05.535Z,9.23
2019-04-21T00:22:10.621Z,10.40
2019-04-21T00:24:24.032Z,9.90
2019-04-21T00:26:33.029Z,12.17
2019-04-21T00:28:42.129Z,9.73
2019-04-21T00:30:44.377Z,11.17
2019-04-21T00:32:41.757Z,10.93
2019-04-21T00:34:41.094Z,8.17
2019-04-21T00:36:53.478Z,10.37
2019-04-21T00:39:26.583Z,11.00
2019-04-21T00:41:16.124Z,10.20
2019-04-21T00:43:15.181Z,11.53
2019-04-21T00:45:18.279Z,9.63
2019-04-21T00:47:30.307Z,9.63
2019-04-21T00:49:27.049Z,11.27
2019-04-21T00:51:54.111Z,8.23
2019-04-21T00:54:06.900Z,11.10
2019-04-21T00:56:07.195Z,10.80
2019-04-21T00:58:10.759Z,9.27
2019-04-21T01:00:11.914Z,10.97
2019-04-21T01:02:15.504Z,9.30
2019-04-21T01:04:30.681Z,8.07
2019-04-21T01:06:36.905Z,8.87
2019-04-21T01:08:36.943Z,10.33
2019-04-21T01:10:33.520Z,11.13
2019-04-21T01:12:48.893Z,12.27
2019-04-21T01:14:59.528Z,10.33
2019-04-21T01:17:00.754Z,8.63
2019-04-21T01:19:06.398Z,12.13
2019-04-21T01:20:48.492Z,13.00
2019-04-21T01:22:52.034Z,10.00
2019-04-21T01:25:04.307Z,9.53
2019-04-21T01:27:10.111Z,12.10
2019-04-21T01:29:27.549Z,10.00
2019-04-21T01:31:30.253Z,11.57
2019-04-21T01:33:46.074Z,12.80
2019-04-21T01:35:48.226Z,11.40
2019-04-21T01:38:19.110Z,10.77
2019-04-21T01:40:02.069Z,11.87
2019-04-21T01:42:03.487Z,10.07
2019-04-21T01:44:07.544Z,12.93
2019-04-21T01:46:15.358Z,13.50
2019-04-21T01:48:17.403Z,10.93
2019-04-21T01:50:31.683Z,8.83
2019-04-21T01:52:44.128Z,11.43
2019-04-21T01:55:00.417Z,11.87
2019-04-21T01:57:10.405Z,10.47
2019-04-21T01:59:01.302Z,11.80
2019-04-21T02:01:24.203Z,9.13
2019-04-21T02:03:50.185Z,11.40
2019-04-21T02:05:39.438Z,9.97
2019-04-21T02:07:40.627Z,9.57
2019-04-21T02:09:44.291Z,11.07
2019-04-21T02:11:55.140Z,12.07
2019-04-21T02:14:05.421Z,12.37
2019-04-21T02:16:08.862Z,10.50
2019-04-21T02:18:08.703Z,9.13
2019-04-21T02:20:09.392Z,8.97
2019-04-21T02:22:25.880Z,10.33
2019-04-21T02:24:39.482Z,9.90
2019-04-21T02:26:37.553Z,11.20
2019-04-21T02:28:51.654Z,10.93
2019-04-21T02:35:13.650Z,8.77
2019-04-21T02:39:18.066Z,9.40
2019-04-21T02:41:32.658Z,10.53
2019-04-21T02:43:38.795Z,9.70
2019-04-21T02:45:49.664Z,13.30
2019-04-21T02:47:58.421Z,9.08
2019-04-21T02:52:14.207Z,8.30
2019-04-21T02:56:18.567Z,10.25
2019-04-21T02:58:27.106Z,10.45
2019-04-21T03:00:40.568Z,10.85
2019-04-21T03:02:54.485Z,9.53
2019-04-21T03:04:53.298Z,11.97
2019-04-21T03:07:14.940Z,9.25
2019-04-21T03:09:20.554Z,10.30
2019-04-21T03:11:25.115Z,10.75
2019-04-21T03:13:29.227Z,11.22
2019-04-21T03:15:43.138Z,11.65
2019-04-21T03:17:43.882Z,10.08
2019-04-21T03:21:57.307Z,7.62
2019-04-21T03:26:12.325Z,10.05
2019-04-21T03:28:14.085Z,9.73
2019-04-21T03:34:56.226Z,9.15
2019-04-21T03:36:56.518Z,8.58
2019-04-21T03:38:42.370Z,11.48
2019-04-21T03:40:53.117Z,11.05
2019-04-21T03:42:57.191Z,10.35
2019-04-21T03:45:06.704Z,9.50
2019-04-21T03:49:23.079Z,12.60
2019-04-21T03:59:55.260Z,9.63
2019-04-21T04:04:30.534Z,8.20
2019-04-21T04:06:20.802Z,9.03
2019-04-21T04:10:46.364Z,9.88
2019-04-21T04:12:48.698Z,8.73
2019-04-21T04:14:50.135Z,8.78
2019-04-21T04:17:04.792Z,14.03
2019-04-21T04:18:57.711Z,10.70
2019-04-21T04:21:13.084Z,9.38
2019-04-21T04:23:31.371Z,11.10
2019-04-21T04:25:19.367Z,10.03
2019-04-21T04:31:37.701Z,6.75
2019-04-21T04:33:48.632Z,9.45
2019-04-21T04:37:55.950Z,11.57
2019-04-21T04:40:21.373Z,8.70
2019-04-21T04:44:46.352Z,6.92
2019-04-21T04:46:43.877Z,8.35
2019-04-21T04:50:53.541Z,8.20
2019-04-21T04:52:56.848Z,8.13
2019-04-21T04:55:06.924Z,7.97
2019-04-21T05:01:32.583Z,9.08
2019-04-21T05:03:47.233Z,8.15
2019-04-21T05:06:28.080Z,7.70
2019-04-21T05:08:39.578Z,7.87
2019-04-21T05:10:41.601Z,7.15
2019-04-21T05:16:56.027Z,8.68
2019-04-21T05:19:04.517Z,7.50
2019-04-21T05:21:16.065Z,7.62
2019-04-21T05:22:58.321Z,10.25
2019-04-21T05:24:59.438Z,7.55
2019-04-21T05:27:07.554Z,6.40
2019-04-21T05:29:08.992Z,6.83
2019-04-21T05:31:34.635Z,6.92
2019-04-21T05:33:44.913Z,9.60
2019-04-21T05:36:10.904Z,7.53
2019-04-21T05:38:28.862Z,7.30
2019-04-21T05:40:29.696Z,8.33
2019-04-21T05:42:36.417Z,9.68
2019-04-21T05:47:07.674Z,7.17
2019-04-21T05:49:06.807Z,9.15
2019-04-21T05:51:03.556Z,9.73
2019-04-21T05:53:22.502Z,8.90
2019-04-21T05:55:27.762Z,9.85
2019-04-21T05:57:22.007Z,11.88
2019-04-21T05:59:32.655Z,11.22
2019-04-21T06:01:39.469Z,7.25
2019-04-21T06:08:03.031Z,9.53
2019-04-21T06:10:29.479Z,8.18
2019-04-21T06:12:13.642Z,11.05
2019-04-21T06:14:20.303Z,10.20
2019-04-21T06:16:34.403Z,10.23
2019-04-21T06:18:44.816Z,7.97
2019-04-21T06:20:35.462Z,8.95
2019-04-21T06:22:46.550Z,8.68
2019-04-21T06:25:16.355Z,12.63
2019-04-21T06:29:00.953Z,7.37
2019-04-21T06:31:17.968Z,9.53
2019-04-21T06:33:20.159Z,8.95
2019-04-21T06:35:39.966Z,10.65
2019-04-21T06:37:59.798Z,7.10
2019-04-21T06:41:49.207Z,9.10
2019-04-21T06:44:01.483Z,9.85
2019-04-21T06:46:06.514Z,9.08
2019-04-21T06:48:10.954Z,9.63
2019-04-21T06:50:19.023Z,11.00
2019-04-21T06:52:44.870Z,12.98
2019-04-21T06:54:30.550Z,9.23
2019-04-21T06:56:38.030Z,9.98
2019-04-21T06:58:37.000Z,10.83
2019-04-21T07:00:41.372Z,8.28
2019-04-21T07:03:00.026Z,8.97
2019-04-21T07:04:54.634Z,8.45
2019-04-21T07:06:59.248Z,8.37
2019-04-21T07:09:16.071Z,8.57
2019-04-21T07:11:08.427Z,11.00
2019-04-21T07:13:15.280Z,8.57
2019-04-21T07:15:30.843Z,9.73
2019-04-21T07:17:45.331Z,7.53
2019-04-21T07:19:42.304Z,8.77
2019-04-21T07:21:46.887Z,10.57
2019-04-21T07:23:53.753Z,11.50
2019-04-21T07:26:00.932Z,9.20
2019-04-21T07:28:07.440Z,8.80
2019-04-21T07:30:13.167Z,7.80
2019-04-21T07:32:19.041Z,10.10
2019-04-21T07:34:30.553Z,9.40
2019-04-21T07:36:43.935Z,6.77
2019-04-21T07:38:33.239Z,8.40
2019-04-21T07:40:36.375Z,9.97
2019-04-21T07:42:38.452Z,8.70
2019-04-21T07:44:46.265Z,9.40
2019-04-21T07:46:47.197Z,6.87
2019-04-21T07:49:07.920Z,8.20
2019-04-21T07:51:31.732Z,7.13
2019-04-21T07:53:52.597Z,8.33
2019-04-21T07:55:32.609Z,7.37
2019-04-21T07:57:52.778Z,7.43
2019-04-21T08:02:10.764Z,8.33
2019-04-21T08:04:33.560Z,6.77
2019-04-21T08:06:20.701Z,8.83
2019-04-21T08:08:21.118Z,9.40
2019-04-21T08:10:28.634Z,6.70
2019-04-21T08:12:30.406Z,7.90
2019-04-21T08:14:46.477Z,7.80
2019-04-21T08:16:55.632Z,7.63
2019-04-21T08:18:51.921Z,7.57
2019-04-21T08:20:54.430Z,6.33
2019-04-21T08:25:08.735Z,9.17
2019-04-21T08:27:20.260Z,6.87
2019-04-21T08:29:25.816Z,6.97
2019-04-21T08:31:34.397Z,8.33
2019-04-21T08:33:46.961Z,11.37
2019-04-21T08:37:46.125Z,6.50
2019-04-21T08:39:59.418Z,7.40
2019-04-21T08:41:57.172Z,7.43
2019-04-21T08:43:58.955Z,8.80
2019-04-21T08:46:06.796Z,7.27
2019-04-21T08:48:17.054Z,6.93
2019-04-21T08:50:20.885Z,7.20
2019-04-21T08:54:37.032Z,6.17
2019-04-21T08:56:48.375Z,7.13
2019-04-21T08:59:18.907Z,8.30
2019-04-21T09:04:13.165Z,8.67
2019-04-21T09:06:07.553Z,6.23
2019-04-21T09:08:13.757Z,6.27
2019-04-21T09:10:09.534Z,7.13
2019-04-21T09:12:17.849Z,7.87
2019-04-21T09:14:24.410Z,7.40
2019-04-21T09:16:24.915Z,7.43
2019-04-21T09:18:27.314Z,6.77
2019-04-21T09:20:46.147Z,11.97
2019-04-21T09:22:41.204Z,6.87
2019-04-21T09:24:52.622Z,8.67
2019-04-21T09:27:02.048Z,8.37
2019-04-21T09:28:57.159Z,10.97
2019-04-21T09:30:55.987Z,10.13
2019-04-21T09:32:58.299Z,7.20
2019-04-21T09:35:10.286Z,9.23
2019-04-21T09:37:19.132Z,7.33
2019-04-21T09:39:18.794Z,9.77
2019-04-21T09:41:24.076Z,9.90
2019-04-21T09:43:35.114Z,7.73
2019-04-21T09:45:33.577Z,7.90
2019-04-21T09:47:46.845Z,7.77
2019-04-21T09:49:45.370Z,6.53
2019-04-21T09:51:50.414Z,7.77
2019-04-21T09:54:04.312Z,6.43
2019-04-21T09:56:05.450Z,10.67
2019-04-21T09:58:18.154Z,9.13
2019-04-21T10:00:20.590Z,7.30
2019-04-21T10:02:32.468Z,8.50
2019-04-21T10:04:24.295Z,7.10
2019-04-21T10:06:28.425Z,6.23
2019-04-21T10:08:36.305Z,7.37
2019-04-21T10:10:40.254Z,5.27
2019-04-21T10:12:45.445Z,5.50
2019-04-21T10:14:49.524Z,6.27
2019-04-21T10:16:57.240Z,5.90
2019-04-21T10:19:00.111Z,6.70
2019-04-21T10:21:05.455Z,6.30
2019-04-21T10:23:09.320Z,6.80
2019-04-21T10:25:14.431Z,6.43
2019-04-21T10:27:19.030Z,5.73
2019-04-21T10:29:26.448Z,4.50
2019-04-21T10:31:29.019Z,4.97
2019-04-21T10:33:32.952Z,5.33
2019-04-21T10:35:37.050Z,9.17
2019-04-21T10:37:53.660Z,7.07
2019-04-21T10:39:47.853Z,5.37
2019-04-21T10:41:51.431Z,6.93
2019-04-21T10:43:56.808Z,5.77
2019-04-21T10:46:01.226Z,6.93
2019-04-21T10:48:05.182Z,5.47
2019-04-21T10:50:11.034Z,6.10
2019-04-21T10:52:34.752Z,5.40
2019-04-21T10:55:05.625Z,7.00
2019-04-21T10:56:47.110Z,5.87
2019-04-21T10:58:52.192Z,5.90
2019-04-21T11:01:00.006Z,6.57
2019-04-21T11:03:20.967Z,8.53
2019-04-21T11:05:24.945Z,5.73
2019-04-21T11:07:59.287Z,7.27
2019-04-21T11:09:51.908Z,4.90
2019-04-21T11:11:55.960Z,5.00
2019-04-21T11:13:59.522Z,5.73
2019-04-21T11:16:03.537Z,4.63
2019-04-21T11:18:08.032Z,5.43
2019-04-21T11:20:12.930Z,4.43
2019-04-21T11:22:16.804Z,7.00
2019-04-21T11:24:20.902Z,4.50
2019-04-21T11:26:24.742Z,5.23
2019-04-21T11:28:29.237Z,4.53
2019-04-21T11:30:34.365Z,4.80
2019-04-21T11:32:39.034Z,5.07
2019-04-21T11:34:43.234Z,5.50
2019-04-21T11:36:48.073Z,6.53
2019-04-21T11:39:07.243Z,6.03
2019-04-21T11:40:59.968Z,6.20
2019-04-21T11:43:03.957Z,4.00
2019-04-21T11:45:08.468Z,5.67
2019-04-21T11:47:14.324Z,5.33
2019-04-21T11:49:20.093Z,6.50
2019-04-21T11:51:24.825Z,4.53
2019-04-21T11:53:28.932Z,5.23
2019-04-21T11:55:37.110Z,4.70
2019-04-21T11:57:43.018Z,6.13
2019-04-21T11:59:44.212Z,5.80
2019-04-21T12:01:47.735Z,4.63
2019-04-21T12:03:51.739Z,4.53
2019-04-21T12:05:55.849Z,7.17
2019-04-21T12:08:01.995Z,4.87
2019-04-21T12:10:06.328Z,5.03
2019-04-21T12:12:11.611Z,5.87
2019-04-21T12:14:16.316Z,5.20
2019-04-21T12:16:21.098Z,4.73
2019-04-21T12:18:29.676Z,5.77
2019-04-21T12:20:30.645Z,5.50
2019-04-21T12:22:35.693Z,6.63
2019-04-21T12:24:40.616Z,4.73
2019-04-21T12:26:44.722Z,4.90
2019-04-21T12:28:50.037Z,5.23
2019-04-21T12:30:55.967Z,4.67
2019-04-21T12:33:07.729Z,6.43
2019-04-21T12:35:13.347Z,5.13
2019-04-21T12:37:17.237Z,4.60
2019-04-21T12:39:21.143Z,5.43
2019-04-21T12:41:25.047Z,4.60
2019-04-21T12:43:28.888Z,4.07
2019-04-21T12:45:33.696Z,4.63
2019-04-21T12:47:39.785Z,4.60
2019-04-21T12:49:43.774Z,6.57
2019-04-21T12:51:51.558Z,5.23
2019-04-21T12:53:55.438Z,6.27
2019-04-21T12:56:00.057Z,4.00
2019-04-21T12:58:03.683Z,5.67
2019-04-21T13:00:11.143Z,6.10
2019-04-21T13:02:19.862Z,5.37
2019-04-21T13:04:23.837Z,4.30
2019-04-21T13:06:27.802Z,4.87
2019-04-21T13:08:45.608Z,5.53
2019-04-21T13:10:38.291Z,4.73
2019-04-21T13:12:42.060Z,4.10
2019-04-21T13:14:45.965Z,4.93
2019-04-21T13:16:49.889Z,5.13
2019-04-21T13:18:55.383Z,5.07
2019-04-21T13:21:00.965Z,6.63
2019-04-21T13:23:05.959Z,4.07
2019-04-21T13:25:10.110Z,5.67
2019-04-21T13:27:15.477Z,4.77
2019-04-21T13:29:20.679Z,4.07
2019-04-21T13:31:24.574Z,4.97
2019-04-21T13:33:29.231Z,6.23
2019-04-21T13:35:33.243Z,4.67
2019-04-21T13:37:37.407Z,4.80
2019-04-21T13:40:09.730Z,6.00
2019-04-21T13:42:02.766Z,4.97
2019-04-21T13:44:01.192Z,4.67
2019-04-21T13:46:05.858Z,4.20
2019-04-21T13:48:10.602Z,5.03
2019-04-21T13:50:15.284Z,4.97
2019-04-21T13:52:18.834Z,3.90
2019-04-21T13:54:22.801Z,4.23
2019-04-21T13:56:26.787Z,4.63
2019-04-21T13:58:34.482Z,7.50
2019-04-21T14:00:39.978Z,5.67
2019-04-21T14:02:44.803Z,4.80
2019-04-21T14:04:53.687Z,4.27
2019-04-21T14:06:58.301Z,3.87
2019-04-21T14:09:03.147Z,3.67
2019-04-21T14:11:07.241Z,5.80
2019-04-21T14:13:12.163Z,4.63
2019-04-21T14:15:17.811Z,5.50
2019-04-21T14:17:22.478Z,9.57
2019-04-21T14:19:27.765Z,4.93
2019-04-21T14:21:31.795Z,4.70
2019-04-21T14:23:40.591Z,5.20
2019-04-21T14:25:41.711Z,5.33
2019-04-21T14:27:49.035Z,5.20
2019-04-21T14:29:51.704Z,5.80
2019-04-21T14:31:56.051Z,5.00
2019-04-21T14:33:59.752Z,4.07
2019-04-21T14:36:05.104Z,3.93
2019-04-21T14:38:09.132Z,4.57
2019-04-21T14:40:20.097Z,6.80
2019-04-21T14:42:20.163Z,5.87
2019-04-21T14:44:24.922Z,4.53
2019-04-21T14:46:31.234Z,4.10
2019-04-21T14:48:39.258Z,3.53
2019-04-21T14:50:54.621Z,3.70
2019-04-21T14:53:09.925Z,4.70
2019-04-21T14:55:26.898Z,3.60
2019-04-21T14:57:31.557Z,3.50
2019-04-21T14:59:35.438Z,3.50
2019-04-21T15:01:39.968Z,4.03
2019-04-21T15:03:43.861Z,5.37
2019-04-21T15:05:49.445Z,4.47
2019-04-21T15:07:53.420Z,4.00
2019-04-21T15:10:05.781Z,4.20
2019-04-21T15:12:02.685Z,4.37
2019-04-21T15:14:08.071Z,3.43
2019-04-21T15:16:12.994Z,4.20
2019-04-21T15:18:16.927Z,3.73
2019-04-21T15:20:22.026Z,4.20
2019-04-21T15:22:26.514Z,4.87
2019-04-21T15:24:30.416Z,3.97
2019-04-21T15:26:35.871Z,3.30
2019-04-21T15:28:42.292Z,4.27
2019-04-21T15:30:48.138Z,3.60
2019-04-21T15:32:52.751Z,4.33
2019-04-21T15:34:56.682Z,5.40
2019-04-21T15:37:01.909Z,3.93
2019-04-21T15:39:10.005Z,3.77
2019-04-21T15:41:14.527Z,5.87
2019-04-21T15:43:18.537Z,4.90
2019-04-21T15:45:22.078Z,3.83
2019-04-21T15:47:26.261Z,5.13
2019-04-21T15:49:58.931Z,3.93
2019-04-21T15:52:00.162Z,3.20
2019-04-21T15:54:04.936Z,4.77
2019-04-21T15:56:17.337Z,3.77
2019-04-21T15:58:28.392Z,3.50
2019-04-21T16:00:34.212Z,5.00
2019-04-21T16:02:40.387Z,3.53
2019-04-21T16:04:44.091Z,3.50
2019-04-21T16:06:47.993Z,4.50
2019-04-21T16:08:55.470Z,4.93
2019-04-21T16:11:03.618Z,6.63
2019-04-21T16:13:05.648Z,4.23
2019-04-21T16:15:10.595Z,3.87
2019-04-21T16:17:15.139Z,3.87
2019-04-21T16:19:23.028Z,4.87
2019-04-21T16:21:26.685Z,3.33
2019-04-21T16:23:30.749Z,3.93
2019-04-21T16:25:36.922Z,4.33
2019-04-21T16:27:41.417Z,3.17
2019-04-21T16:29:49.949Z,4.23
2019-04-21T16:31:55.147Z,4.30
2019-04-21T16:33:59.061Z,3.37
2019-04-21T16:36:02.951Z,4.47
2019-04-21T16:38:07.845Z,3.20
2019-04-21T16:40:13.763Z,4.40
2019-04-21T16:42:20.577Z,4.50
2019-04-21T16:44:25.293Z,3.67
2019-04-21T16:46:29.557Z,5.13
2019-04-21T16:48:33.914Z,4.50
2019-04-21T16:50:39.527Z,5.10
2019-04-21T16:52:58.131Z,4.43
2019-04-21T16:55:23.193Z,5.03
2019-04-21T16:57:35.568Z,3.70
2019-04-21T16:59:42.340Z,3.57
2019-04-21T17:01:46.844Z,4.83
2019-04-21T17:03:50.844Z,4.93
2019-04-21T17:05:55.942Z,5.23
2019-04-21T17:08:00.101Z,4.53
2019-04-21T17:10:04.622Z,5.97
2019-04-21T17:12:13.739Z,5.40
2019-04-21T17:14:32.916Z,4.17
2019-04-21T17:18:46.232Z,5.13
2019-04-21T17:20:43.115Z,4.67
2019-04-21T17:22:39.594Z,3.87
2019-04-21T17:24:44.382Z,5.37
2019-04-21T17:26:49.649Z,3.90
2019-04-21T17:28:56.917Z,5.53
2019-04-21T17:31:00.776Z,4.27
2019-04-21T17:33:11.312Z,5.47
2019-04-21T17:35:12.194Z,5.20
2019-04-21T17:37:22.040Z,5.37
2019-04-21T17:39:26.915Z,5.57
2019-04-21T17:41:36.423Z,4.40
2019-04-21T17:43:37.420Z,5.53
2019-04-21T17:45:41.410Z,4.33
2019-04-21T17:47:54.225Z,5.43
2019-04-21T17:50:11.610Z,4.07
2019-04-21T17:52:40.222Z,3.77
2019-04-21T17:54:46.907Z,4.30
2019-04-21T17:57:13.710Z,4.87
2019-04-21T17:59:09.901Z,3.67
2019-04-21T18:01:20.165Z,4.40
2019-04-21T18:03:30.590Z,4.93
2019-04-21T18:05:32.263Z,3.90
2019-04-21T18:07:35.052Z,4.17
2019-04-21T18:09:44.095Z,5.20
2019-04-21T18:11:49.330Z,3.67
2019-04-21T18:13:32.833Z,4.33
2019-04-21T18:15:54.388Z,4.67
2019-04-21T18:17:42.835Z,4.97
2019-04-21T18:19:49.163Z,4.73
2019-04-21T18:21:59.224Z,4.90
2019-04-21T18:24:10.390Z,4.50
2019-04-21T18:26:15.682Z,4.43
2019-04-21T18:28:12.571Z,5.70
2019-04-21T18:30:46.797Z,5.70
2019-04-21T18:32:53.687Z,6.43
2019-04-21T18:35:15.976Z,4.03
2019-04-21T18:37:41.906Z,4.40
2019-04-21T18:40:03.760Z,4.00
2019-04-21T18:42:21.266Z,5.43
2019-04-21T18:44:55.044Z,5.37
2019-04-21T18:46:52.593Z,6.47
2019-04-21T18:48:47.025Z,6.73
2019-04-21T18:50:55.134Z,3.97
2019-04-21T18:53:09.000Z,5.03
2019-04-21T18:55:16.272Z,6.13
2019-04-21T18:57:20.532Z,3.50
2019-04-21T18:59:14.320Z,3.67
2019-04-21T19:01:24.216Z,3.77
2019-04-21T19:03:28.292Z,4.63
2019-04-21T19:05:29.874Z,4.63
2019-04-21T19:07:57.268Z,5.60
2019-04-21T19:10:16.070Z,4.33
2019-04-21T19:12:10.087Z,4.10
2019-04-21T19:14:29.052Z,4.63
2019-04-21T19:20:32.760Z,5.17
2019-04-21T19:22:38.152Z,5.67
2019-04-21T19:24:43.721Z,4.00
2019-04-21T19:26:54.567Z,4.63
2019-04-21T19:28:54.819Z,7.77
2019-04-21T19:31:07.704Z,5.47
2019-04-21T19:33:02.865Z,4.47
2019-04-21T19:34:57.038Z,6.13
2019-04-21T19:37:03.073Z,6.07
2019-04-21T19:39:10.605Z,6.10
2019-04-21T19:41:25.640Z,6.03
2019-04-21T19:43:35.817Z,6.50
2019-04-21T19:45:34.850Z,6.07
2019-04-21T19:47:48.776Z,5.13
2019-04-21T19:49:55.107Z,5.23
2019-04-21T19:51:50.326Z,5.60
2019-04-21T19:53:56.013Z,4.30
2019-04-21T19:55:54.629Z,4.57
2019-04-21T19:57:58.898Z,4.90
2019-04-21T20:00:04.243Z,5.87
2019-04-21T20:02:09.016Z,4.87
2019-04-21T20:04:12.911Z,6.33
2019-04-21T20:06:33.101Z,7.03
2019-04-21T20:08:41.793Z,6.20
2019-04-21T20:10:48.470Z,6.83
2019-04-21T20:12:58.351Z,6.10
2019-04-21T20:15:08.856Z,4.90
2019-04-21T20:17:02.794Z,5.20
2019-04-21T20:18:59.207Z,5.63
2019-04-21T20:20:59.526Z,4.83
2019-04-21T20:23:14.984Z,5.33
2019-04-21T20:25:15.325Z,5.17
2019-04-21T20:27:31.157Z,5.23
2019-04-21T20:29:44.507Z,4.13
2019-04-21T20:31:38.522Z,4.03
2019-04-21T20:33:59.579Z,6.17
2019-04-21T20:36:08.228Z,5.50
2019-04-21T20:37:57.735Z,5.43
2019-04-21T20:39:58.514Z,3.93
2019-04-21T20:42:15.637Z,5.10
2019-04-21T20:44:23.217Z,5.40
2019-04-21T20:46:25.466Z,5.60
2019-04-21T20:48:29.678Z,4.67
2019-04-21T20:50:33.453Z,7.50
2019-04-21T20:52:51.925Z,4.40
2019-04-21T20:54:49.308Z,6.03
2019-04-21T20:56:57.847Z,5.90
2019-04-21T20:59:01.578Z,3.80
2019-04-21T21:01:30.823Z,4.27
2019-04-21T21:03:11.990Z,6.40
2019-04-21T21:05:19.030Z,5.17
2019-04-21T21:07:40.438Z,3.97
2019-04-21T21:09:28.294Z,4.30
2019-04-21T21:11:53.505Z,5.17
2019-04-21T21:13:46.275Z,3.53
2019-04-21T21:15:51.348Z,5.67
2019-04-21T21:18:01.688Z,4.67
2019-04-21T21:20:07.757Z,4.77
2019-04-21T21:21:58.800Z,4.80
2019-04-21T21:24:12.683Z,4.47
2019-04-21T21:26:21.851Z,6.00
2019-04-21T21:28:22.691Z,6.43
2019-04-21T21:30:26.922Z,4.67
2019-04-21T21:32:37.492Z,7.50
2019-04-21T21:34:47.947Z,5.90
2019-04-21T21:36:47.715Z,7.80
2019-04-21T21:38:54.542Z,7.17
2019-04-21T21:40:53.019Z,5.13
2019-04-21T21:42:46.188Z,7.10
2019-04-21T21:45:00.146Z,5.40
2019-04-21T21:47:06.441Z,4.60
2019-04-21T21:49:20.198Z,6.27
2019-04-21T21:51:16.681Z,5.70
2019-04-21T21:53:22.903Z,4.47
2019-04-21T21:55:23.725Z,7.23
2019-04-21T21:57:32.929Z,4.00
2019-04-21T21:59:37.961Z,7.80
2019-04-21T22:01:45.728Z,5.40
2019-04-21T22:03:48.566Z,4.90
2019-04-21T22:05:58.334Z,5.13
2019-04-21T22:07:58.433Z,6.33
2019-04-21T22:10:02.519Z,5.53
2019-04-21T22:12:07.233Z,5.83
2019-04-21T22:14:22.308Z,7.40
2019-04-21T22:16:19.379Z,5.43
2019-04-21T22:18:39.115Z,6.50
2019-04-21T22:20:44.487Z,5.77
2019-04-21T22:22:45.034Z,4.90
2019-04-21T22:24:50.763Z,5.93
2019-04-21T22:26:45.246Z,5.43
2019-04-21T22:28:49.712Z,4.33
2019-04-21T22:30:55.164Z,5.83
2019-04-21T22:33:04.531Z,3.63
2019-04-21T22:35:16.160Z,4.53
2019-04-21T22:37:30.520Z,10.33
2019-04-21T22:39:34.968Z,5.83
2019-04-21T22:41:33.725Z,5.17
2019-04-21T22:43:36.432Z,4.63
2019-04-21T22:45:35.745Z,4.43
2019-04-21T22:47:41.543Z,6.60
2019-04-21T22:49:46.424Z,4.90
2019-04-21T22:51:51.944Z,6.73
2019-04-21T22:53:59.056Z,5.07
2019-04-21T22:56:10.934Z,6.13
2019-04-21T22:58:07.679Z,3.43
2019-04-21T23:00:15.342Z,6.40
2019-04-21T23:02:23.723Z,4.93
2019-04-21T23:04:25.439Z,6.80
2019-04-21T23:06:32.324Z,3.60
2019-04-21T23:08:39.444Z,4.87
2019-04-21T23:10:41.386Z,5.53
2019-04-21T23:12:45.886Z,6.60
2019-04-21T23:15:01.154Z,5.17
2019-04-21T23:17:16.867Z,4.20
2019-04-21T23:19:22.849Z,4.53
2019-04-21T23:21:19.469Z,4.90
2019-04-21T23:23:38.419Z,6.17
2019-04-21T23:25:36.547Z,4.43
2019-04-21T23:27:44.069Z,4.27
2019-04-21T23:30:07.786Z,5.90
2019-04-21T23:31:55.107Z,4.50
2019-04-21T23:33:40.127Z,7.80
2019-04-21T23:35:47.172Z,4.30
2019-04-21T23:37:56.458Z,6.37
2019-04-21T23:40:01.144Z,5.87
2019-04-21T23:42:02.356Z,6.97
2019-04-21T23:44:08.312Z,4.10
2019-04-21T23:46:18.873Z,4.87
2019-04-21T23:48:28.824Z,7.57
2019-04-21T23:50:34.230Z,6.97
2019-04-21T23:52:28.050Z,5.40
2019-04-21T23:54:31.594Z,5.43
2019-04-21T23:56:39.459Z,5.97
2019-04-21T23:58:44.029Z,3.90
